Terminal Aerodrome Forecast
Issued by NWS

Home | Current Version | Previous Version | Text Only | Print | Product List | Glossary On
Versions: 1 2 3 4 5 6 7 8 9 10 11 12 13 14 15
000
FTUS44 KLZK 270900 AAB
TAFHOT
TAF AMD
KHOT 270924Z 2709/2806 06005KT 5SM -RA VCSH OVC008 WS020/19045KT
      TEMPO 2709/2713 1SM -RA BR OVC003
     FM271600 33007KT 4SM -DZ BR VCSH BKN008 OVC015
     FM280000 35005KT P6SM VCSH BKN015 OVC035=

USA.gov is the U.S. government's official web portal to all federal, state and local government web resources and services.